Time;durP1;ratioP1;P1;durP2;ratioP2;P2;SDS_P1;SDS_P2;PMS_P1;PMS_P2;Temp;Humidity;BMP_temperature;BMP_pressure;BME280_temperature;BME280_humidity;BME280_pressure;Samples;Min_cycle;Max_cycle;Signal;HPM_P1;HPM_P2
2022/01/26 00:05:43;;;;;;;79.57;29.77;;;;;;;;;;4967319;28;20028;-82
2022/01/26 00:06:27;;;;;;;81.88;26.85;;;;;;;;;;4963843;29;20035;-81
2022/01/26 00:08:53;;;;;;;82.22;28.77;;;;;;;;;;4954683;28;20024;-84
2022/01/26 00:11:18;;;;;;;83.43;28.63;;;;;;;;;;4959895;28;20023;-83
2022/01/26 00:13:43;;;;;;;80.63;28.40;;;;;;;;;;4951620;28;20027;-82
2022/01/26 00:16:18;;;;;;;84.10;28.27;;;;;;;;;;4959113;28;20079;-80
2022/01/26 00:18:43;;;;;;;83.95;27.52;;;;;;;;;;4968294;28;20047;-81
2022/01/26 00:21:15;;;;;;;96.15;29.77;;;;;;;;;;4957080;28;20055;-82
2022/01/26 00:26:31;;;;;;;106.03;28.95;;;;;;;;;;4958706;28;20031;-82
2022/01/26 00:39:34;;;;;;;88.90;27.42;;;;;;;;;;4957067;28;20146;-82
2022/01/26 00:42:00;;;;;;;72.55;26.77;;;;;;;;;;4950544;28;21390;-81
2022/01/26 00:44:33;;;;;;;85.20;28.63;;;;;;;;;;4958411;28;20586;-83
2022/01/26 00:46:59;;;;;;;89.15;26.85;;;;;;;;;;4952786;28;20466;-84
2022/01/26 00:49:26;;;;;;;125.15;29.20;;;;;;;;;;4954032;29;20030;-82
2022/01/26 00:51:52;;;;;;;85.55;26.05;;;;;;;;;;4961166;28;20031;-81
2022/01/26 00:54:17;;;;;;;98.43;27.83;;;;;;;;;;4957565;29;20078;-82
2022/01/26 00:56:42;;;;;;;103.70;27.58;;;;;;;;;;4950323;29;20485;-82
2022/01/26 00:59:08;;;;;;;74.35;24.58;;;;;;;;;;4969791;28;20015;-80
2022/01/26 01:01:33;;;;;;;96.78;26.52;;;;;;;;;;4947993;29;20038;-81
2022/01/26 01:03:59;;;;;;;97.72;25.95;;;;;;;;;;4950173;29;20031;-81
2022/01/26 01:06:32;;;;;;;86.40;25.10;;;;;;;;;;4960415;28;20027;-82
2022/01/26 01:08:58;;;;;;;87.97;24.70;;;;;;;;;;4949763;29;20031;-81
2022/01/26 01:11:25;;;;;;;76.05;24.23;;;;;;;;;;4931796;29;20061;-81
2022/01/26 01:13:51;;;;;;;122.13;25.23;;;;;;;;;;4947829;28;20035;-82
2022/01/26 01:16:20;;;;;;;115.05;25.73;;;;;;;;;;4952689;28;20068;-80
2022/01/26 01:19:33;;;;;;;118.10;25.65;;;;;;;;;;4956978;28;20050;-82
2022/01/26 01:24:52;;;;;;;82.35;22.08;;;;;;;;;;4972652;28;20107;-82
2022/01/26 01:33:04;;;;;;;89.70;23.05;;;;;;;;;;4962991;28;20031;-83
2022/01/26 01:35:32;;;;;;;90.03;22.40;;;;;;;;;;4964621;29;20039;-82
2022/01/26 01:38:06;;;;;;;78.07;24.27;;;;;;;;;;4966878;29;20027;-83
2022/01/26 01:40:32;;;;;;;99.15;23.33;;;;;;;;;;4964844;29;20031;-81
2022/01/26 01:42:57;;;;;;;53.05;18.80;;;;;;;;;;4962980;28;20781;-81
2022/01/26 01:45:34;;;;;;;85.78;22.55;;;;;;;;;;4965147;28;20537;-83
2022/01/26 01:48:00;;;;;;;148.27;22.25;;;;;;;;;;4964638;29;20037;-82
2022/01/26 01:50:25;;;;;;;70.75;19.58;;;;;;;;;;4966053;29;20050;-82
2022/01/26 01:52:58;;;;;;;59.95;19.38;;;;;;;;;;4954034;28;20042;-82
2022/01/26 01:55:27;;;;;;;73.63;17.10;;;;;;;;;;4960820;28;20478;-83
2022/01/26 01:57:52;;;;;;;87.82;19.00;;;;;;;;;;4956873;28;20389;-82
2022/01/26 02:00:17;;;;;;;80.50;19.33;;;;;;;;;;4959782;29;20094;-82
2022/01/26 02:02:43;;;;;;;82.90;18.73;;;;;;;;;;4958769;28;20063;-82
2022/01/26 02:05:08;;;;;;;69.38;19.50;;;;;;;;;;4957956;28;20053;-81
2022/01/26 02:07:34;;;;;;;88.38;18.67;;;;;;;;;;4959383;29;20039;-84
2022/01/26 02:10:02;;;;;;;81.63;16.58;;;;;;;;;;4959351;29;20179;-81
2022/01/26 02:12:28;;;;;;;106.15;19.10;;;;;;;;;;4959001;28;20031;-82
2022/01/26 02:15:04;;;;;;;94.22;19.35;;;;;;;;;;4937195;29;20131;-83
2022/01/26 02:20:23;;;;;;;47.17;18.33;;;;;;;;;;4959020;29;20031;-80
2022/01/26 03:03:45;;;;;;;59.20;19.35;;;;;;;;;;4983339;28;20536;-85
2022/01/26 03:06:13;;;;;;;54.08;18.95;;;;;;;;;;4982393;28;20390;-84
2022/01/26 03:08:49;;;;;;;57.80;20.08;;;;;;;;;;4981032;28;20034;-83
2022/01/26 03:11:15;;;;;;;58.33;18.88;;;;;;;;;;4979637;28;20118;-81
2022/01/26 03:13:47;;;;;;;60.10;17.90;;;;;;;;;;4962971;28;20027;-83
2022/01/26 03:16:23;;;;;;;;;;;;;;;;;;4970817;29;20031;-84
2022/01/26 03:28:11;;;;;;;63.95;17.88;;;;;;;;;;4973907;28;20051;-83
2022/01/26 03:35:16;;;;;;;62.58;19.00;;;;;;;;;;4968290;29;20117;-82
2022/01/26 03:37:49;;;;;;;;;;;;;;;;;;4970855;28;20039;-82
2022/01/26 03:40:15;;;;;;;43.85;14.68;;;;;;;;;;4968261;29;20329;-83
2022/01/26 03:42:41;;;;;;;51.35;16.55;;;;;;;;;;4965724;28;20043;-82
2022/01/26 03:45:07;;;;;;;64.60;18.00;;;;;;;;;;4966558;28;20034;-83
2022/01/26 03:47:32;;;;;;;55.45;17.38;;;;;;;;;;4966708;28;20078;-82
2022/01/26 03:49:57;;;;;;;60.22;19.17;;;;;;;;;;4968801;28;20059;-83
2022/01/26 03:52:23;;;;;;;79.65;19.08;;;;;;;;;;4967209;28;20028;-81
2022/01/26 03:54:48;;;;;;;45.60;16.92;;;;;;;;;;4966251;28;20077;-82
2022/01/26 03:57:14;;;;;;;63.95;18.45;;;;;;;;;;4965359;29;20110;-82
2022/01/26 03:59:39;;;;;;;62.40;18.27;;;;;;;;;;4966342;29;20047;-83
2022/01/26 04:02:05;;;;;;;51.45;18.98;;;;;;;;;;4966266;28;20496;-82
2022/01/26 04:04:36;;;;;;;69.63;18.83;;;;;;;;;;4967191;29;20027;-83
2022/01/26 04:07:02;;;;;;;57.92;19.88;;;;;;;;;;4966583;29;20027;-82
2022/01/26 04:09:27;;;;;;;59.53;18.65;;;;;;;;;;4950237;29;20034;-82
2022/01/26 04:11:53;;;;;;;63.05;18.70;;;;;;;;;;4966466;28;20027;-83
2022/01/26 04:14:23;;;;;;;49.65;17.70;;;;;;;;;;4966412;28;20087;-81
2022/01/26 04:16:48;;;;;;;67.88;20.80;;;;;;;;;;4963452;29;20385;-81
2022/01/26 04:19:14;;;;;;;56.15;18.88;;;;;;;;;;4965109;28;20492;-83
2022/01/26 04:24:20;;;;;;;56.67;19.08;;;;;;;;;;4963775;28;20046;-82
2022/01/26 04:27:35;;;;;;;67.18;18.92;;;;;;;;;;4967235;29;20031;-82
2022/01/26 04:29:35;;;;;;;69.57;20.15;;;;;;;;;;4965392;29;20107;-82
2022/01/26 04:32:03;;;;;;;66.65;20.23;;;;;;;;;;4967903;28;20030;-82
2022/01/26 04:34:28;;;;;;;54.42;18.45;;;;;;;;;;4968049;28;20034;-84
2022/01/26 04:37:05;;;;;;;61.88;20.33;;;;;;;;;;4968373;29;20031;-83
2022/01/26 04:39:44;;;;;;;50.95;19.00;;;;;;;;;;4967539;28;20704;-82
2022/01/26 04:42:15;;;;;;;55.85;18.00;;;;;;;;;;4965897;28;20590;-81
2022/01/26 04:44:47;;;;;;;51.80;20.15;;;;;;;;;;4965330;29;20042;-81
2022/01/26 04:47:12;;;;;;;63.88;20.30;;;;;;;;;;4968191;28;20026;-80
2022/01/26 04:49:38;;;;;;;60.33;19.23;;;;;;;;;;4979542;28;20047;-81
2022/01/26 04:52:04;;;;;;;61.63;19.83;;;;;;;;;;4974008;28;20030;-82
2022/01/26 04:54:30;;;;;;;58.15;17.38;;;;;;;;;;4969627;29;20070;-84
2022/01/26 04:56:55;;;;;;;53.92;18.10;;;;;;;;;;4969010;28;20110;-83
2022/01/26 04:59:20;;;;;;;56.10;21.27;;;;;;;;;;4966965;28;20387;-83
2022/01/26 05:01:46;;;;;;;51.92;19.25;;;;;;;;;;4950288;29;20027;-83
2022/01/26 05:04:14;;;;;;;52.30;19.83;;;;;;;;;;4967814;28;20027;-83
2022/01/26 05:06:40;;;;;;;51.80;18.65;;;;;;;;;;4967144;29;20045;-82
2022/01/26 05:09:05;;;;;;;61.03;19.75;;;;;;;;;;4966398;29;20031;-83
2022/01/26 05:11:35;;;;;;;44.30;17.05;;;;;;;;;;4966916;29;20499;-82
2022/01/26 05:14:01;;;;;;;53.83;17.13;;;;;;;;;;4950803;29;20027;-83
2022/01/26 05:16:28;;;;;;;75.10;18.58;;;;;;;;;;4960603;29;20429;-83
2022/01/26 05:18:54;;;;;;;61.25;18.60;;;;;;;;;;4968150;29;20023;-83
2022/01/26 05:21:21;;;;;;;49.53;18.25;;;;;;;;;;4964588;28;20019;-83
2022/01/26 05:23:46;;;;;;;52.95;20.30;;;;;;;;;;4966941;28;20023;-83
2022/01/26 05:26:12;;;;;;;52.85;18.38;;;;;;;;;;4968021;29;20023;-82
2022/01/26 05:28:38;;;;;;;48.05;17.88;;;;;;;;;;4974092;28;20038;-82
2022/01/26 05:31:03;;;;;;;64.35;19.55;;;;;;;;;;4971465;28;20071;-84
2022/01/26 05:33:29;;;;;;;59.38;21.02;;;;;;;;;;4946103;29;20447;-83
2022/01/26 05:35:54;;;;;;;58.92;20.13;;;;;;;;;;4963919;28;20118;-83
2022/01/26 05:38:20;;;;;;;62.50;18.58;;;;;;;;;;4966069;29;20027;-84
2022/01/26 05:40:46;;;;;;;56.00;19.52;;;;;;;;;;4964847;29;20027;-83
2022/01/26 05:43:11;;;;;;;53.33;19.75;;;;;;;;;;4963733;28;20027;-83
2022/01/26 05:45:39;;;;;;;51.60;17.67;;;;;;;;;;4958541;28;20058;-83
2022/01/26 05:48:09;;;;;;;57.47;17.95;;;;;;;;;;4964774;29;20110;-84
2022/01/26 05:50:37;;;;;;;73.43;19.83;;;;;;;;;;4965477;29;20086;-84
2022/01/26 05:53:02;;;;;;;53.55;17.33;;;;;;;;;;4954539;29;20054;-83
2022/01/26 05:55:27;;;;;;;57.53;19.30;;;;;;;;;;4954182;28;20034;-83
2022/01/26 05:57:53;;;;;;;56.40;17.90;;;;;;;;;;4967356;29;20027;-83
2022/01/26 06:00:18;;;;;;;64.05;18.05;;;;;;;;;;4949542;29;20030;-83
2022/01/26 06:02:44;;;;;;;55.22;20.20;;;;;;;;;;4966636;28;20034;-82
2022/01/26 06:05:10;;;;;;;55.58;18.55;;;;;;;;;;4949941;29;20039;-83
2022/01/26 06:07:36;;;;;;;48.92;18.67;;;;;;;;;;4965618;28;20039;-82
2022/01/26 06:10:02;;;;;;;55.67;18.23;;;;;;;;;;4965197;28;20585;-83
2022/01/26 06:12:29;;;;;;;60.00;19.73;;;;;;;;;;4968648;28;20027;-82
2022/01/26 06:14:55;;;;;;;68.40;20.58;;;;;;;;;;4972251;28;20027;-86
2022/01/26 06:17:20;;;;;;;61.28;18.70;;;;;;;;;;4967230;28;20091;-81
2022/01/26 06:19:46;;;;;;;61.80;21.17;;;;;;;;;;4963056;28;20042;-83
2022/01/26 06:22:11;;;;;;;55.25;19.92;;;;;;;;;;4969059;28;20038;-82
2022/01/26 06:24:37;;;;;;;54.17;18.50;;;;;;;;;;4969076;28;20057;-81
2022/01/26 06:27:03;;;;;;;64.95;18.30;;;;;;;;;;4968815;28;20031;-87
2022/01/26 06:29:30;;;;;;;51.78;19.10;;;;;;;;;;4967391;29;20115;-86
2022/01/26 06:31:56;;;;;;;61.40;19.67;;;;;;;;;;4977993;28;20097;-81
2022/01/26 06:34:22;;;;;;;76.47;24.25;;;;;;;;;;4976342;28;20106;-81
2022/01/26 06:36:47;;;;;;;65.50;21.40;;;;;;;;;;4978939;28;20397;-82
2022/01/26 06:39:13;;;;;;;70.97;20.55;;;;;;;;;;4953599;29;20082;-82
2022/01/26 06:41:47;;;;;;;61.97;19.90;;;;;;;;;;4954725;29;20058;-82
2022/01/26 06:44:22;;;;;;;78.47;20.63;;;;;;;;;;4972719;28;20031;-82
2022/01/26 06:47:15;;;;;;;61.50;19.58;;;;;;;;;;4968927;28;20023;-84
2022/01/26 06:49:33;;;;;;;66.00;20.25;;;;;;;;;;4952120;29;20047;-82
2022/01/26 06:51:58;;;;;;;61.00;19.75;;;;;;;;;;4951167;29;20027;-81
2022/01/26 06:54:24;;;;;;;69.82;19.05;;;;;;;;;;4950237;29;20056;-82
2022/01/26 06:56:50;;;;;;;53.75;19.95;;;;;;;;;;4951512;29;20054;-82
2022/01/26 06:59:15;;;;;;;63.00;20.40;;;;;;;;;;4951410;29;20019;-82
2022/01/26 07:01:41;;;;;;;54.42;20.08;;;;;;;;;;4950555;29;20027;-80
2022/01/26 07:04:07;;;;;;;63.35;19.77;;;;;;;;;;4936139;28;20031;-82
2022/01/26 07:06:33;;;;;;;70.93;21.98;;;;;;;;;;4980001;28;20690;-82
2022/01/26 07:08:58;;;;;;;68.10;21.13;;;;;;;;;;4969654;28;20027;-83
2022/01/26 07:11:23;;;;;;;62.95;20.35;;;;;;;;;;4964283;29;20079;-82
2022/01/26 07:13:52;;;;;;;60.83;21.85;;;;;;;;;;4970809;29;20038;-82
2022/01/26 07:21:46;;;;;;;55.65;17.85;;;;;;;;;;4970805;29;20561;-82
2022/01/26 07:24:11;;;;;;;58.95;18.52;;;;;;;;;;4966595;28;20031;-83
2022/01/26 07:26:37;;;;;;;55.55;18.30;;;;;;;;;;4973634;29;20018;-83
2022/01/26 07:29:08;;;;;;;62.92;19.13;;;;;;;;;;4973630;28;20034;-82
2022/01/26 07:31:36;;;;;;;52.70;18.65;;;;;;;;;;4974600;28;20496;-84
2022/01/26 07:34:01;;;;;;;77.50;21.48;;;;;;;;;;4967062;28;20041;-84
2022/01/26 07:36:26;;;;;;;65.45;19.73;;;;;;;;;;4963696;29;20477;-85
2022/01/26 07:38:54;;;;;;;70.68;21.67;;;;;;;;;;4964053;29;20038;-83
2022/01/26 07:41:20;;;;;;;69.05;20.92;;;;;;;;;;4963702;29;20537;-83
2022/01/26 07:43:46;;;;;;;54.95;19.13;;;;;;;;;;4944470;29;20023;-84
2022/01/26 07:46:12;;;;;;;56.28;20.60;;;;;;;;;;4963015;29;20106;-82
2022/01/26 07:48:38;;;;;;;67.80;20.67;;;;;;;;;;4962855;29;20062;-81
2022/01/26 07:51:03;;;;;;;70.75;21.35;;;;;;;;;;4963236;29;20031;-83
2022/01/26 07:53:29;;;;;;;64.10;19.55;;;;;;;;;;4962476;28;20051;-82
2022/01/26 07:55:56;;;;;;;72.95;21.55;;;;;;;;;;4965890;29;20019;-82
2022/01/26 07:58:21;;;;;;;74.55;19.73;;;;;;;;;;4965147;29;20073;-83
2022/01/26 08:00:47;;;;;;;64.03;18.85;;;;;;;;;;4964342;28;20111;-83
2022/01/26 08:03:13;;;;;;;70.78;17.77;;;;;;;;;;4947853;29;20031;-82
2022/01/26 08:05:38;;;;;;;67.55;21.25;;;;;;;;;;4964178;29;20417;-83
2022/01/26 08:08:04;;;;;;;74.82;22.27;;;;;;;;;;4962290;29;20474;-83
2022/01/26 08:10:29;;;;;;;71.57;22.02;;;;;;;;;;4962009;29;20031;-82
2022/01/26 08:12:54;;;;;;;75.40;23.25;;;;;;;;;;4957311;28;20028;-83
2022/01/26 08:15:20;;;;;;;76.50;20.63;;;;;;;;;;4962888;28;20023;-81
2022/01/26 08:17:46;;;;;;;61.13;20.10;;;;;;;;;;4962232;28;20027;-83
2022/01/26 08:20:11;;;;;;;59.15;20.65;;;;;;;;;;4946617;29;20031;-83
2022/01/26 08:22:37;;;;;;;61.20;20.23;;;;;;;;;;4965078;28;20019;-83
2022/01/26 08:25:04;;;;;;;76.72;22.13;;;;;;;;;;4960898;29;20115;-83
2022/01/26 08:27:37;;;;;;;61.40;21.25;;;;;;;;;;4962151;29;20030;-82
2022/01/26 08:30:08;;;;;;;65.60;21.50;;;;;;;;;;4961630;29;20027;-81
2022/01/26 08:32:34;;;;;;;61.75;20.35;;;;;;;;;;4961798;28;20050;-82
2022/01/26 08:34:59;;;;;;;61.05;21.52;;;;;;;;;;4960108;28;20374;-81
2022/01/26 08:37:25;;;;;;;53.13;18.92;;;;;;;;;;4961264;29;20030;-82
2022/01/26 08:39:50;;;;;;;54.97;18.05;;;;;;;;;;4943222;29;20094;-80
2022/01/26 08:42:16;;;;;;;63.75;21.23;;;;;;;;;;4955566;28;20412;-83
2022/01/26 08:44:41;;;;;;;72.65;27.90;;;;;;;;;;4956875;29;20039;-84
2022/01/26 08:47:07;;;;;;;116.70;46.50;;;;;;;;;;4957652;28;20050;-79
2022/01/26 08:49:32;;;;;;;67.70;20.23;;;;;;;;;;4960446;29;20345;-83
2022/01/26 08:51:58;;;;;;;63.67;19.55;;;;;;;;;;4959678;28;20030;-83
2022/01/26 08:54:24;;;;;;;80.57;22.33;;;;;;;;;;4959673;29;20114;-83
2022/01/26 08:56:51;;;;;;;70.53;21.75;;;;;;;;;;4960552;29;20071;-83
2022/01/26 08:59:21;;;;;;;60.42;19.73;;;;;;;;;;4960263;29;20075;-82
2022/01/26 09:01:47;;;;;;;74.68;20.02;;;;;;;;;;4957580;28;20082;-81
2022/01/26 09:04:13;;;;;;;52.33;14.82;;;;;;;;;;4951744;29;20074;-83
2022/01/26 09:06:49;;;;;;;80.88;20.67;;;;;;;;;;4961191;29;20034;-82
2022/01/26 09:09:16;;;;;;;66.82;18.48;;;;;;;;;;4959549;29;20027;-83
2022/01/26 09:11:42;;;;;;;77.68;18.65;;;;;;;;;;4959273;28;20062;-83
2022/01/26 09:14:10;;;;;;;65.60;19.90;;;;;;;;;;4958799;28;20581;-83
2022/01/26 09:16:36;;;;;;;88.25;20.42;;;;;;;;;;4955247;28;20035;-83
2022/01/26 09:19:11;;;;;;;72.00;18.80;;;;;;;;;;4957572;29;20023;-80
2022/01/26 09:21:36;;;;;;;90.10;21.33;;;;;;;;;;4958868;29;20031;-83
2022/01/26 09:24:02;;;;;;;79.57;21.35;;;;;;;;;;4959263;28;20517;-81
2022/01/26 09:26:27;;;;;;;61.42;17.63;;;;;;;;;;4957582;29;20027;-83
2022/01/26 09:28:53;;;;;;;65.32;18.13;;;;;;;;;;4976309;29;20062;-81
2022/01/26 09:31:18;;;;;;;71.15;21.13;;;;;;;;;;4988032;28;20054;-81
2022/01/26 09:33:43;;;;;;;82.72;20.50;;;;;;;;;;4977403;28;20027;-80
2022/01/26 09:36:09;;;;;;;77.82;19.52;;;;;;;;;;4975368;28;20045;-79
2022/01/26 09:38:34;;;;;;;72.20;21.05;;;;;;;;;;4977831;28;20022;-80
2022/01/26 09:41:00;;;;;;;44.83;12.75;;;;;;;;;;4976683;28;20035;-80
2022/01/26 09:43:27;;;;;;;79.97;21.95;;;;;;;;;;4977427;28;20047;-80
2022/01/26 09:45:53;;;;;;;71.85;19.55;;;;;;;;;;4978947;28;20050;-80
2022/01/26 09:48:18;;;;;;;64.65;17.75;;;;;;;;;;4969499;29;20034;-81
2022/01/26 09:50:45;;;;;;;71.65;19.58;;;;;;;;;;4969133;29;20075;-83
2022/01/26 09:53:16;;;;;;;58.42;21.58;;;;;;;;;;4952735;29;20032;-80
2022/01/26 09:55:42;;;;;;;59.05;20.33;;;;;;;;;;4953799;29;20031;-84
2022/01/26 09:58:08;;;;;;;70.07;21.45;;;;;;;;;;4968803;29;20031;-83
2022/01/26 10:00:34;;;;;;;63.45;20.40;;;;;;;;;;4967755;29;20031;-83
2022/01/26 10:03:05;;;;;;;63.42;21.17;;;;;;;;;;4943451;29;20031;-82
2022/01/26 10:05:51;;;;;;;73.40;21.63;;;;;;;;;;4966777;29;20023;-83
2022/01/26 10:19:08;;;;;;;55.90;18.42;;;;;;;;;;4978442;29;20023;-82
2022/01/26 10:21:48;;;;;;;67.55;19.25;;;;;;;;;;4975114;29;20027;-82
2022/01/26 10:24:14;;;;;;;60.13;19.75;;;;;;;;;;4978924;28;20015;-83
2022/01/26 10:26:39;;;;;;;57.70;18.73;;;;;;;;;;4979603;28;20071;-82
2022/01/26 10:29:05;;;;;;;56.28;18.98;;;;;;;;;;4979821;28;20067;-81
2022/01/26 10:31:37;;;;;;;58.22;19.75;;;;;;;;;;4965313;28;20019;-80
2022/01/26 10:34:22;;;;;;;54.35;19.52;;;;;;;;;;4974555;28;20030;-83
2022/01/26 10:36:54;;;;;;;53.05;17.92;;;;;;;;;;4976003;29;20039;-82
2022/01/26 10:39:34;;;;;;;53.20;18.20;;;;;;;;;;4956423;29;20034;-83
2022/01/26 10:42:06;;;;;;;56.90;19.50;;;;;;;;;;4960318;28;20027;-82
2022/01/26 10:44:37;;;;;;;54.33;18.30;;;;;;;;;;4973518;28;20363;-82
2022/01/26 10:47:05;;;;;;;46.58;17.95;;;;;;;;;;4972054;28;20106;-81
2022/01/26 10:50:07;;;;;;;60.97;20.42;;;;;;;;;;4973269;28;20055;-82
2022/01/26 10:52:38;;;;;;;56.17;19.85;;;;;;;;;;4973118;28;20028;-81
2022/01/26 10:55:06;;;;;;;69.53;20.50;;;;;;;;;;4976520;29;20102;-82
2022/01/26 10:57:31;;;;;;;58.05;19.13;;;;;;;;;;4975675;28;20027;-82
2022/01/26 10:59:57;;;;;;;56.58;18.10;;;;;;;;;;4975314;29;20973;-83
2022/01/26 11:02:28;;;;;;;45.40;16.63;;;;;;;;;;4975528;28;20033;-83
2022/01/26 11:04:54;;;;;;;58.67;17.98;;;;;;;;;;4964027;28;20035;-83
2022/01/26 11:07:19;;;;;;;55.53;17.75;;;;;;;;;;4974309;28;20031;-81
2022/01/26 11:09:47;;;;;;;56.30;18.52;;;;;;;;;;4957978;29;20015;-82
2022/01/26 11:12:15;;;;;;;60.33;17.73;;;;;;;;;;4974915;28;20027;-83
2022/01/26 11:14:45;;;;;;;66.45;18.88;;;;;;;;;;4972985;29;20054;-82
2022/01/26 11:17:22;;;;;;;54.85;17.80;;;;;;;;;;4974094;28;20011;-82
2022/01/26 11:19:48;;;;;;;55.55;16.60;;;;;;;;;;4970420;29;20397;-82
2022/01/26 11:22:14;;;;;;;45.67;15.27;;;;;;;;;;4965975;28;20083;-82
2022/01/26 11:24:43;;;;;;;55.63;17.13;;;;;;;;;;4967425;29;20118;-81
2022/01/26 11:27:08;;;;;;;50.67;17.23;;;;;;;;;;4968116;29;20031;-83
2022/01/26 11:29:37;;;;;;;75.20;18.30;;;;;;;;;;4968588;29;20063;-83
2022/01/26 11:32:06;;;;;;;61.17;19.05;;;;;;;;;;4971424;28;20028;-81
2022/01/26 11:34:34;;;;;;;59.03;17.35;;;;;;;;;;4963198;28;20053;-82
2022/01/26 11:37:00;;;;;;;62.03;17.38;;;;;;;;;;4977484;28;20083;-82
2022/01/26 11:45:15;;;;;;;64.15;18.70;;;;;;;;;;4973889;29;20027;-82
2022/01/26 11:48:01;;;;;;;59.90;16.00;;;;;;;;;;4973236;29;20031;-84
2022/01/26 11:50:35;;;;;;;70.78;19.25;;;;;;;;;;4973863;28;20031;-85
2022/01/26 18:17:45;;;;;;;42.45;13.85;;;;;;;;;;4995085;28;20027;-83
2022/01/26 18:39:11;;;;;;;41.22;14.52;;;;;;;;;;5000883;28;20058;-83
2022/01/26 18:49:30;;;;;;;38.90;13.82;;;;;;;;;;5001547;28;20046;-83
2022/01/26 18:51:58;;;;;;;35.13;11.38;;;;;;;;;;5007570;28;20110;-82
2022/01/26 18:54:30;;;;;;;39.38;13.23;;;;;;;;;;5008024;28;20040;-81
2022/01/26 18:56:58;;;;;;;38.42;12.98;;;;;;;;;;5010838;28;20038;-83
2022/01/26 18:59:24;;;;;;;34.75;13.05;;;;;;;;;;5002324;28;20030;-83
2022/01/26 19:01:55;;;;;;;34.08;10.88;;;;;;;;;;5007285;28;20049;-84
2022/01/26 19:04:29;;;;;;;49.33;15.95;;;;;;;;;;5019865;28;20505;-83
2022/01/26 19:06:56;;;;;;;45.15;15.15;;;;;;;;;;5010152;28;20037;-84
2022/01/26 19:09:25;;;;;;;47.88;15.23;;;;;;;;;;5001549;28;20440;-83
2022/01/26 19:11:51;;;;;;;41.92;14.85;;;;;;;;;;5008081;28;20030;-83
2022/01/26 19:14:16;;;;;;;43.38;15.73;;;;;;;;;;5006108;28;20089;-82
2022/01/26 19:16:48;;;;;;;45.88;15.45;;;;;;;;;;5012709;28;20029;-81
2022/01/26 19:27:02;;;;;;;54.45;14.48;;;;;;;;;;5006679;28;20065;-82
2022/01/26 19:32:48;;;;;;;51.88;14.93;;;;;;;;;;4968917;28;20041;-83
2022/01/26 19:51:18;;;;;;;38.45;13.05;;;;;;;;;;5008562;28;20038;-85
2022/01/26 19:53:44;;;;;;;43.13;15.13;;;;;;;;;;4998678;28;20034;-84
2022/01/26 19:56:09;;;;;;;50.92;15.20;;;;;;;;;;5001328;28;20054;-84
2022/01/26 19:58:35;;;;;;;45.03;12.68;;;;;;;;;;4996298;28;20034;-85
2022/01/26 20:01:01;;;;;;;43.08;15.68;;;;;;;;;;5007017;28;20034;-85
2022/01/26 20:03:28;;;;;;;38.83;13.80;;;;;;;;;;5004846;28;20026;-83
2022/01/26 20:05:55;;;;;;;32.50;12.45;;;;;;;;;;4995985;28;20125;-85
2022/01/26 20:11:24;;;;;;;36.03;13.15;;;;;;;;;;4998926;28;20057;-86
2022/01/26 20:13:50;;;;;;;28.00;11.27;;;;;;;;;;5000055;28;20022;-83
2022/01/26 20:16:16;;;;;;;38.10;13.90;;;;;;;;;;5000761;28;20095;-85
2022/01/26 20:18:41;;;;;;;38.78;12.77;;;;;;;;;;4978442;28;20173;-86
2022/01/26 20:21:09;;;;;;;38.97;13.73;;;;;;;;;;4994361;28;20049;-87
2022/01/26 20:23:36;;;;;;;33.80;12.15;;;;;;;;;;5009743;28;20046;-88
2022/01/26 20:26:05;;;;;;;39.22;14.15;;;;;;;;;;5008406;28;20030;-88
2022/01/26 20:28:33;;;;;;;34.85;13.00;;;;;;;;;;5005888;28;20473;-84
2022/01/26 20:31:01;;;;;;;47.20;15.95;;;;;;;;;;4992905;28;20117;-83
2022/01/26 20:33:27;;;;;;;39.33;13.63;;;;;;;;;;5013010;28;20017;-85
2022/01/26 20:35:54;;;;;;;37.35;13.00;;;;;;;;;;4973075;28;20121;-87
2022/01/26 20:38:19;;;;;;;23.85;9.82;;;;;;;;;;4983444;28;20109;-85
2022/01/26 20:40:48;;;;;;;36.13;13.77;;;;;;;;;;5005627;28;20476;-87
2022/01/26 20:43:13;;;;;;;35.70;13.10;;;;;;;;;;4991968;28;20105;-85
2022/01/26 20:45:39;;;;;;;34.25;13.77;;;;;;;;;;5011246;28;20112;-84
2022/01/26 20:48:05;;;;;;;44.80;15.50;;;;;;;;;;5001856;28;20026;-85
2022/01/26 20:50:32;;;;;;;39.70;14.93;;;;;;;;;;4998987;28;20399;-85
2022/01/26 20:52:59;;;;;;;44.47;15.07;;;;;;;;;;5013752;28;20026;-83
2022/01/26 20:55:25;;;;;;;37.35;13.30;;;;;;;;;;4999683;28;20078;-83
2022/01/26 20:57:50;;;;;;;31.33;10.82;;;;;;;;;;4999749;28;20054;-84
2022/01/26 21:00:19;;;;;;;41.55;13.75;;;;;;;;;;4998799;28;20034;-82
2022/01/26 21:02:48;;;;;;;44.42;15.00;;;;;;;;;;5024793;28;20381;-85
2022/01/26 21:05:18;;;;;;;36.72;14.00;;;;;;;;;;5010784;28;20040;-84
2022/01/26 21:07:44;;;;;;;38.97;13.45;;;;;;;;;;4999584;28;20046;-81
2022/01/26 21:10:12;;;;;;;32.85;14.43;;;;;;;;;;5005061;28;20064;-84
2022/01/26 21:12:37;;;;;;;32.40;12.98;;;;;;;;;;5007670;28;20646;-82
2022/01/26 21:15:04;;;;;;;32.92;13.27;;;;;;;;;;5006987;28;20029;-82
2022/01/26 21:17:31;;;;;;;36.20;12.73;;;;;;;;;;5004582;28;20491;-82
2022/01/26 21:19:56;;;;;;;37.28;13.48;;;;;;;;;;5004023;28;20026;-82
2022/01/26 21:22:21;;;;;;;38.85;13.57;;;;;;;;;;4988645;28;20037;-81
2022/01/26 21:24:47;;;;;;;34.85;13.45;;;;;;;;;;4999564;28;20512;-80
2022/01/26 21:27:12;;;;;;;37.78;12.57;;;;;;;;;;4986287;28;20017;-79
2022/01/26 21:29:38;;;;;;;46.00;13.18;;;;;;;;;;4997960;28;20057;-82
2022/01/26 21:32:04;;;;;;;31.95;13.77;;;;;;;;;;5003858;28;20033;-83
2022/01/26 21:34:29;;;;;;;35.28;14.02;;;;;;;;;;4998530;28;20057;-80
2022/01/26 21:36:55;;;;;;;32.45;12.50;;;;;;;;;;5010041;28;20104;-81
2022/01/26 21:39:21;;;;;;;33.03;12.85;;;;;;;;;;4997546;28;20486;-81
2022/01/26 21:41:46;;;;;;;34.58;13.80;;;;;;;;;;5008632;28;20041;-82
2022/01/26 21:44:12;;;;;;;33.10;12.07;;;;;;;;;;4984014;28;20026;-79
2022/01/26 21:46:40;;;;;;;31.33;11.43;;;;;;;;;;5005378;28;20051;-83
2022/01/26 21:49:05;;;;;;;37.53;12.55;;;;;;;;;;4996979;28;20066;-82
2022/01/26 21:51:31;;;;;;;28.83;11.77;;;;;;;;;;5003398;28;20038;-85
2022/01/26 21:53:56;;;;;;;38.40;13.50;;;;;;;;;;4985995;28;20153;-85
2022/01/26 21:56:24;;;;;;;37.90;12.68;;;;;;;;;;4979944;28;20797;-83
2022/01/26 21:58:49;;;;;;;41.75;12.70;;;;;;;;;;5001937;28;20022;-82
2022/01/26 22:01:15;;;;;;;40.30;13.98;;;;;;;;;;5003631;28;20526;-83
2022/01/26 22:03:42;;;;;;;40.75;12.55;;;;;;;;;;4979589;28;20070;-85
2022/01/26 22:06:07;;;;;;;38.95;13.80;;;;;;;;;;5008935;28;20532;-83
2022/01/26 22:08:32;;;;;;;35.30;13.00;;;;;;;;;;4978853;28;20046;-83
2022/01/26 22:10:59;;;;;;;40.75;13.43;;;;;;;;;;5002338;28;20030;-83
2022/01/26 22:13:25;;;;;;;17.60;9.73;;;;;;;;;;4996069;28;20136;-82
2022/01/26 22:15:50;;;;;;;35.88;12.20;;;;;;;;;;4985964;28;20034;-80
2022/01/26 22:18:16;;;;;;;41.60;12.75;;;;;;;;;;4982919;28;20030;-83
2022/01/26 22:20:41;;;;;;;43.60;14.23;;;;;;;;;;5004144;28;20034;-82
2022/01/26 22:23:08;;;;;;;39.15;12.77;;;;;;;;;;5002076;28;20506;-80
2022/01/26 22:25:33;;;;;;;44.58;14.18;;;;;;;;;;4986085;28;20026;-81
2022/01/26 22:28:00;;;;;;;40.63;12.93;;;;;;;;;;4999243;28;20032;-82
2022/01/26 22:30:28;;;;;;;32.90;12.93;;;;;;;;;;5000772;28;20484;-84
2022/01/26 22:32:59;;;;;;;36.28;12.88;;;;;;;;;;5006075;28;20551;-82
2022/01/26 22:35:26;;;;;;;40.47;14.35;;;;;;;;;;5001734;28;20027;-82
2022/01/26 22:37:57;;;;;;;40.47;13.48;;;;;;;;;;4999038;28;20407;-82
2022/01/26 22:40:25;;;;;;;42.08;13.45;;;;;;;;;;4998525;28;20026;-84
2022/01/26 22:42:51;;;;;;;31.27;12.25;;;;;;;;;;4999431;28;20030;-82
2022/01/26 22:45:18;;;;;;;39.78;14.32;;;;;;;;;;5000648;28;20045;-83
2022/01/26 22:47:43;;;;;;;35.05;13.68;;;;;;;;;;4984911;28;20103;-83
2022/01/26 22:50:09;;;;;;;35.45;12.10;;;;;;;;;;5002639;28;20054;-81
2022/01/26 22:52:35;;;;;;;38.10;12.77;;;;;;;;;;5008434;28;20034;-80
2022/01/26 22:55:00;;;;;;;49.30;15.05;;;;;;;;;;5004497;28;20030;-81
2022/01/26 22:57:26;;;;;;;40.22;14.57;;;;;;;;;;5004235;28;20022;-81
2022/01/26 22:59:51;;;;;;;40.90;13.60;;;;;;;;;;5002150;28;20018;-81
2022/01/26 23:05:03;;;;;;;48.40;14.13;;;;;;;;;;5005720;28;20125;-83
2022/01/26 23:07:28;;;;;;;34.60;13.25;;;;;;;;;;5010657;28;20254;-82
2022/01/26 23:09:53;;;;;;;39.15;13.70;;;;;;;;;;5000587;28;20018;-82
2022/01/26 23:12:19;;;;;;;38.17;14.63;;;;;;;;;;5002833;28;20023;-82
2022/01/26 23:14:44;;;;;;;35.47;13.98;;;;;;;;;;5012190;28;20028;-79
2022/01/26 23:17:09;;;;;;;44.05;14.18;;;;;;;;;;5006859;28;20050;-80
2022/01/26 23:19:35;;;;;;;47.60;15.50;;;;;;;;;;4999780;28;20019;-82
2022/01/26 23:22:00;;;;;;;41.25;14.00;;;;;;;;;;4993318;28;20030;-80
2022/01/26 23:24:33;;;;;;;38.40;14.23;;;;;;;;;;5011432;28;20025;-84
2022/01/26 23:27:11;;;;;;;48.20;13.93;;;;;;;;;;5000130;28;20027;-81
2022/01/26 23:29:56;;;;;;;39.42;14.32;;;;;;;;;;5001339;28;20157;-82
2022/01/26 23:35:12;;;;;;;45.22;14.38;;;;;;;;;;5006402;28;20332;-81
